sensor_id;sensor_type;location;lat;lon;timestamp;P1;P2;P0
23240;PMS7003;11789;53.482;9.862;2023-02-03T00:01:17;14.25;12.25;9.00
23240;PMS7003;11789;53.482;9.862;2023-02-03T00:03:43;15.50;14.50;9.00
23240;PMS7003;11789;53.482;9.862;2023-02-03T00:06:08;14.75;14.75;10.50
23240;PMS7003;11789;53.482;9.862;2023-02-03T00:08:34;18.00;16.50;9.25
23240;PMS7003;11789;53.482;9.862;2023-02-03T00:11:01;18.25;16.25;11.00
23240;PMS7003;11789;53.482;9.862;2023-02-03T00:13:27;24.25;17.25;10.00
23240;PMS7003;11789;53.482;9.862;2023-02-03T00:15:52;22.75;18.75;11.00
23240;PMS7003;11789;53.482;9.862;2023-02-03T00:18:18;22.25;17.00;11.25
23240;PMS7003;11789;53.482;9.862;2023-02-03T00:20:43;22.75;17.00;10.00
23240;PMS7003;11789;53.482;9.862;2023-02-03T00:23:10;26.25;19.75;11.00
23240;PMS7003;11789;53.482;9.862;2023-02-03T00:25:36;21.50;19.50;12.00
23240;PMS7003;11789;53.482;9.862;2023-02-03T00:28:03;18.50;17.50;10.50
23240;PMS7003;11789;53.482;9.862;2023-02-03T00:30:29;24.75;21.50;11.75
23240;PMS7003;11789;53.482;9.862;2023-02-03T00:32:55;22.25;19.50;10.75
23240;PMS7003;11789;53.482;9.862;2023-02-03T00:35:21;23.75;19.75;11.00
23240;PMS7003;11789;53.482;9.862;2023-02-03T00:37:50;19.25;16.75;9.50
23240;PMS7003;11789;53.482;9.862;2023-02-03T00:40:17;23.00;19.50;12.00
23240;PMS7003;11789;53.482;9.862;2023-02-03T00:42:43;17.75;14.50;10.00
23240;PMS7003;11789;53.482;9.862;2023-02-03T00:45:08;16.50;15.50;9.50
23240;PMS7003;11789;53.482;9.862;2023-02-03T00:47:34;18.25;17.00;9.50
23240;PMS7003;11789;53.482;9.862;2023-02-03T00:49:59;18.75;16.00;11.00
23240;PMS7003;11789;53.482;9.862;2023-02-03T00:52:25;18.50;17.50;10.75
23240;PMS7003;11789;53.482;9.862;2023-02-03T00:54:50;21.25;19.50;12.75
23240;PMS7003;11789;53.482;9.862;2023-02-03T00:57:16;22.00;20.25;13.00
23240;PMS7003;11789;53.482;9.862;2023-02-03T00:59:41;27.50;22.50;13.50
23240;PMS7003;11789;53.482;9.862;2023-02-03T01:02:06;20.25;20.25;12.00
23240;PMS7003;11789;53.482;9.862;2023-02-03T01:04:32;27.00;22.25;13.00
23240;PMS7003;11789;53.482;9.862;2023-02-03T01:06:57;21.00;19.75;12.25
23240;PMS7003;11789;53.482;9.862;2023-02-03T01:09:24;22.50;20.50;13.25
23240;PMS7003;11789;53.482;9.862;2023-02-03T01:11:50;20.25;17.25;11.00
23240;PMS7003;11789;53.482;9.862;2023-02-03T01:14:15;24.00;20.75;13.25
23240;PMS7003;11789;53.482;9.862;2023-02-03T01:16:41;29.00;23.00;13.00
23240;PMS7003;11789;53.482;9.862;2023-02-03T01:19:06;19.00;19.00;12.25
23240;PMS7003;11789;53.482;9.862;2023-02-03T01:21:32;23.25;19.75;13.00
23240;PMS7003;11789;53.482;9.862;2023-02-03T01:23:58;20.25;20.25;12.75
23240;PMS7003;11789;53.482;9.862;2023-02-03T01:26:24;23.75;22.25;13.00
23240;PMS7003;11789;53.482;9.862;2023-02-03T01:28:53;26.25;19.75;11.50
23240;PMS7003;11789;53.482;9.862;2023-02-03T01:31:21;23.75;19.25;13.00
23240;PMS7003;11789;53.482;9.862;2023-02-03T01:33:50;19.50;19.50;11.75
23240;PMS7003;11789;53.482;9.862;2023-02-03T01:36:18;16.75;16.75;12.00
23240;PMS7003;11789;53.482;9.862;2023-02-03T01:38:45;19.00;18.00;11.75
23240;PMS7003;11789;53.482;9.862;2023-02-03T01:41:12;24.75;19.75;12.00
23240;PMS7003;11789;53.482;9.862;2023-02-03T01:43:41;21.75;19.50;12.75
23240;PMS7003;11789;53.482;9.862;2023-02-03T01:46:21;22.75;19.75;13.50
23240;PMS7003;11789;53.482;9.862;2023-02-03T01:48:52;19.75;18.75;11.00
23240;PMS7003;11789;53.482;9.862;2023-02-03T01:51:20;17.25;17.25;12.00
23240;PMS7003;11789;53.482;9.862;2023-02-03T01:53:47;20.00;17.25;11.75
23240;PMS7003;11789;53.482;9.862;2023-02-03T01:56:14;17.75;15.75;10.00
23240;PMS7003;11789;53.482;9.862;2023-02-03T01:58:41;18.75;18.75;11.75
23240;PMS7003;11789;53.482;9.862;2023-02-03T02:01:08;16.50;16.50;11.25
23240;PMS7003;11789;53.482;9.862;2023-02-03T02:03:35;20.75;16.75;11.25
23240;PMS7003;11789;53.482;9.862;2023-02-03T02:06:06;20.00;17.25;11.75
23240;PMS7003;11789;53.482;9.862;2023-02-03T02:08:33;22.25;16.50;11.00
23240;PMS7003;11789;53.482;9.862;2023-02-03T02:11:00;18.25;16.00;11.50
23240;PMS7003;11789;53.482;9.862;2023-02-03T02:13:27;18.75;14.00;10.75
23240;PMS7003;11789;53.482;9.862;2023-02-03T02:24:56;19.50;15.50;11.25
23240;PMS7003;11789;53.482;9.862;2023-02-03T02:36:10;17.50;16.50;11.00
23240;PMS7003;11789;53.482;9.862;2023-02-03T02:38:58;19.50;17.75;10.00
23240;PMS7003;11789;53.482;9.862;2023-02-03T02:41:28;19.00;19.00;11.00
23240;PMS7003;11789;53.482;9.862;2023-02-03T02:47:07;13.50;13.50;9.00
23240;PMS7003;11789;53.482;9.862;2023-02-03T02:50:22;15.75;12.25;9.00
23240;PMS7003;11789;53.482;9.862;2023-02-03T02:52:33;14.25;12.75;8.50
23240;PMS7003;11789;53.482;9.862;2023-02-03T02:55:16;18.00;11.25;7.50
23240;PMS7003;11789;53.482;9.862;2023-02-03T02:57:49;14.75;13.00;9.00
23240;PMS7003;11789;53.482;9.862;2023-02-03T03:00:17;17.75;15.00;10.00
23240;PMS7003;11789;53.482;9.862;2023-02-03T03:02:44;17.00;11.50;8.75
23240;PMS7003;11789;53.482;9.862;2023-02-03T03:05:10;14.75;13.00;7.50
23240;PMS7003;11789;53.482;9.862;2023-02-03T03:07:39;13.00;11.50;8.25
23240;PMS7003;11789;53.482;9.862;2023-02-03T03:10:12;12.00;10.00;7.25
23240;PMS7003;11789;53.482;9.862;2023-02-03T03:12:48;10.00;10.00;7.25
23240;PMS7003;11789;53.482;9.862;2023-02-03T03:15:19;12.75;10.25;7.25
23240;PMS7003;11789;53.482;9.862;2023-02-03T03:17:57;13.50;10.75;8.50
23240;PMS7003;11789;53.482;9.862;2023-02-03T03:20:29;10.00;9.00;6.75
23240;PMS7003;11789;53.482;9.862;2023-02-03T03:23:06;10.25;10.25;9.25
23240;PMS7003;11789;53.482;9.862;2023-02-03T03:25:42;15.25;10.75;6.00
23240;PMS7003;11789;53.482;9.862;2023-02-03T03:28:12;10.25;9.00;5.75
23240;PMS7003;11789;53.482;9.862;2023-02-03T03:30:43;11.00;9.50;6.00
23240;PMS7003;11789;53.482;9.862;2023-02-03T03:33:08;11.00;10.00;6.50
23240;PMS7003;11789;53.482;9.862;2023-02-03T03:38:19;7.50;7.50;6.00
23240;PMS7003;11789;53.482;9.862;2023-02-03T03:40:50;10.25;8.00;5.50
23240;PMS7003;11789;53.482;9.862;2023-02-03T03:43:23;7.25;7.25;4.25
23240;PMS7003;11789;53.482;9.862;2023-02-03T03:45:54;10.25;8.75;6.00
23240;PMS7003;11789;53.482;9.862;2023-02-03T03:48:31;10.00;9.75;6.00
23240;PMS7003;11789;53.482;9.862;2023-02-03T03:51:05;9.00;9.00;6.50
23240;PMS7003;11789;53.482;9.862;2023-02-03T03:53:37;6.00;6.00;5.00
23240;PMS7003;11789;53.482;9.862;2023-02-03T03:56:08;10.00;8.75;5.50
23240;PMS7003;11789;53.482;9.862;2023-02-03T03:58:41;12.50;10.25;7.25
23240;PMS7003;11789;53.482;9.862;2023-02-03T04:01:10;13.75;10.50;7.00
23240;PMS7003;11789;53.482;9.862;2023-02-03T04:03:39;10.50;9.25;6.00
23240;PMS7003;11789;53.482;9.862;2023-02-03T04:06:10;9.25;7.00;6.00
23240;PMS7003;11789;53.482;9.862;2023-02-03T04:08:36;9.25;9.25;6.00
23240;PMS7003;11789;53.482;9.862;2023-02-03T04:11:03;9.75;9.75;7.00
23240;PMS7003;11789;53.482;9.862;2023-02-03T04:13:29;8.75;8.75;6.25
23240;PMS7003;11789;53.482;9.862;2023-02-03T04:15:54;8.75;7.50;5.25
23240;PMS7003;11789;53.482;9.862;2023-02-03T04:18:20;8.75;7.00;6.00
23240;PMS7003;11789;53.482;9.862;2023-02-03T04:20:45;6.25;6.25;4.75
23240;PMS7003;11789;53.482;9.862;2023-02-03T04:23:11;9.50;8.75;6.00
23240;PMS7003;11789;53.482;9.862;2023-02-03T04:25:36;9.75;8.50;5.00
23240;PMS7003;11789;53.482;9.862;2023-02-03T04:28:02;11.25;7.75;6.00
23240;PMS7003;11789;53.482;9.862;2023-02-03T04:30:27;11.00;7.25;5.00
23240;PMS7003;11789;53.482;9.862;2023-02-03T04:32:53;11.50;10.75;7.25
23240;PMS7003;11789;53.482;9.862;2023-02-03T04:35:18;7.75;7.75;5.00
23240;PMS7003;11789;53.482;9.862;2023-02-03T04:37:44;10.50;7.25;5.50
23240;PMS7003;11789;53.482;9.862;2023-02-03T04:40:10;10.50;7.50;5.00
23240;PMS7003;11789;53.482;9.862;2023-02-03T04:42:36;10.00;8.00;5.50
23240;PMS7003;11789;53.482;9.862;2023-02-03T04:45:03;9.00;6.00;5.00
23240;PMS7003;11789;53.482;9.862;2023-02-03T04:47:29;8.25;8.25;6.25
23240;PMS7003;11789;53.482;9.862;2023-02-03T04:49:55;7.75;7.75;5.25
23240;PMS7003;11789;53.482;9.862;2023-02-03T04:52:20;11.25;10.25;6.00
23240;PMS7003;11789;53.482;9.862;2023-02-03T04:54:45;8.75;8.75;6.00
23240;PMS7003;11789;53.482;9.862;2023-02-03T04:57:11;13.00;10.50;7.00
23240;PMS7003;11789;53.482;9.862;2023-02-03T04:59:36;7.50;7.50;4.75
23240;PMS7003;11789;53.482;9.862;2023-02-03T05:02:02;10.25;9.50;7.25
23240;PMS7003;11789;53.482;9.862;2023-02-03T05:04:28;10.50;10.00;6.50
23240;PMS7003;11789;53.482;9.862;2023-02-03T05:06:53;12.00;10.00;7.25
23240;PMS7003;11789;53.482;9.862;2023-02-03T05:09:20;12.50;10.00;7.00
23240;PMS7003;11789;53.482;9.862;2023-02-03T05:11:45;10.75;10.50;8.50
23240;PMS7003;11789;53.482;9.862;2023-02-03T05:14:11;15.25;10.50;5.50
23240;PMS7003;11789;53.482;9.862;2023-02-03T05:16:36;10.00;10.00;7.25
23240;PMS7003;11789;53.482;9.862;2023-02-03T05:19:02;11.25;9.75;7.00
23240;PMS7003;11789;53.482;9.862;2023-02-03T05:21:27;12.50;11.00;8.25
23240;PMS7003;11789;53.482;9.862;2023-02-03T05:23:53;10.75;10.00;7.25
23240;PMS7003;11789;53.482;9.862;2023-02-03T05:26:18;12.75;10.00;6.25
23240;PMS7003;11789;53.482;9.862;2023-02-03T05:28:44;17.50;9.25;5.00
23240;PMS7003;11789;53.482;9.862;2023-02-03T05:31:09;11.00;9.75;7.00
23240;PMS7003;11789;53.482;9.862;2023-02-03T05:33:35;10.00;10.00;7.00
23240;PMS7003;11789;53.482;9.862;2023-02-03T05:36:00;10.25;10.00;7.25
23240;PMS7003;11789;53.482;9.862;2023-02-03T05:38:26;12.00;10.00;7.25
23240;PMS7003;11789;53.482;9.862;2023-02-03T05:40:51;13.00;10.75;7.00
23240;PMS7003;11789;53.482;9.862;2023-02-03T05:43:36;11.25;9.00;6.00
23240;PMS7003;11789;53.482;9.862;2023-02-03T05:46:02;9.50;9.00;5.50
23240;PMS7003;11789;53.482;9.862;2023-02-03T05:48:29;9.75;9.25;5.50
23240;PMS7003;11789;53.482;9.862;2023-02-03T05:50:55;7.00;5.50;5.00
23240;PMS7003;11789;53.482;9.862;2023-02-03T05:53:21;9.75;8.50;5.75
23240;PMS7003;11789;53.482;9.862;2023-02-03T05:55:46;5.75;5.75;5.50
23240;PMS7003;11789;53.482;9.862;2023-02-03T05:58:12;13.25;7.50;5.00
23240;PMS7003;11789;53.482;9.862;2023-02-03T06:00:37;10.25;7.25;5.00
23240;PMS7003;11789;53.482;9.862;2023-02-03T06:03:03;7.50;7.50;5.50
23240;PMS7003;11789;53.482;9.862;2023-02-03T06:05:29;13.00;9.00;5.00
23240;PMS7003;11789;53.482;9.862;2023-02-03T06:07:56;8.25;7.25;5.00
23240;PMS7003;11789;53.482;9.862;2023-02-03T06:10:22;8.75;8.75;5.25
23240;PMS7003;11789;53.482;9.862;2023-02-03T06:12:47;9.00;6.25;5.00
23240;PMS7003;11789;53.482;9.862;2023-02-03T06:15:13;15.75;9.25;6.00
23240;PMS7003;11789;53.482;9.862;2023-02-03T06:17:42;7.50;6.00;5.00
23240;PMS7003;11789;53.482;9.862;2023-02-03T06:20:13;9.50;8.50;5.25
23240;PMS7003;11789;53.482;9.862;2023-02-03T06:22:40;9.25;6.50;4.00
23240;PMS7003;11789;53.482;9.862;2023-02-03T06:25:06;9.00;6.00;5.00
23240;PMS7003;11789;53.482;9.862;2023-02-03T06:27:32;8.75;6.00;4.00
23240;PMS7003;11789;53.482;9.862;2023-02-03T06:29:57;9.50;7.50;6.00
23240;PMS7003;11789;53.482;9.862;2023-02-03T06:32:23;9.00;6.50;5.25
23240;PMS7003;11789;53.482;9.862;2023-02-03T06:34:49;12.00;8.00;4.75
23240;PMS7003;11789;53.482;9.862;2023-02-03T06:37:14;12.50;10.25;6.00
23240;PMS7003;11789;53.482;9.862;2023-02-03T06:39:40;10.50;9.00;5.00
23240;PMS7003;11789;53.482;9.862;2023-02-03T06:42:05;6.00;6.00;5.00
23240;PMS7003;11789;53.482;9.862;2023-02-03T06:44:31;9.50;6.25;5.00
23240;PMS7003;11789;53.482;9.862;2023-02-03T06:46:56;6.00;6.00;5.75
23240;PMS7003;11789;53.482;9.862;2023-02-03T06:49:22;12.00;11.00;8.50
23240;PMS7003;11789;53.482;9.862;2023-02-03T06:51:48;7.50;7.50;3.50
23240;PMS7003;11789;53.482;9.862;2023-02-03T06:54:14;11.25;8.25;5.75
23240;PMS7003;11789;53.482;9.862;2023-02-03T06:56:39;15.50;10.00;6.00
23240;PMS7003;11789;53.482;9.862;2023-02-03T06:59:05;14.25;9.00;6.25
23240;PMS7003;11789;53.482;9.862;2023-02-03T07:01:37;16.25;8.75;5.50
23240;PMS7003;11789;53.482;9.862;2023-02-03T07:04:02;10.00;7.00;5.50
23240;PMS7003;11789;53.482;9.862;2023-02-03T07:09:15;13.50;10.00;6.00
23240;PMS7003;11789;53.482;9.862;2023-02-03T07:11:41;10.50;6.50;5.00
23240;PMS7003;11789;53.482;9.862;2023-02-03T07:14:06;7.50;7.00;6.00
23240;PMS7003;11789;53.482;9.862;2023-02-03T07:16:32;9.00;7.75;5.25
23240;PMS7003;11789;53.482;9.862;2023-02-03T07:18:58;10.25;9.25;5.50
23240;PMS7003;11789;53.482;9.862;2023-02-03T07:21:24;10.75;9.00;5.50
23240;PMS7003;11789;53.482;9.862;2023-02-03T07:23:50;11.00;8.75;5.00
23240;PMS7003;11789;53.482;9.862;2023-02-03T07:26:15;11.50;7.50;5.00
23240;PMS7003;11789;53.482;9.862;2023-02-03T07:28:41;8.50;7.25;5.00
23240;PMS7003;11789;53.482;9.862;2023-02-03T07:31:07;7.00;7.00;5.00
23240;PMS7003;11789;53.482;9.862;2023-02-03T07:33:34;11.00;6.25;5.00
23240;PMS7003;11789;53.482;9.862;2023-02-03T07:36:00;9.25;7.00;5.00
23240;PMS7003;11789;53.482;9.862;2023-02-03T07:38:26;9.75;6.50;5.00
23240;PMS7003;11789;53.482;9.862;2023-02-03T07:40:52;6.00;6.00;4.00
23240;PMS7003;11789;53.482;9.862;2023-02-03T07:43:19;7.50;7.00;5.00
23240;PMS7003;11789;53.482;9.862;2023-02-03T07:45:44;6.50;5.25;4.50
23240;PMS7003;11789;53.482;9.862;2023-02-03T07:48:10;5.25;5.25;3.75
23240;PMS7003;11789;53.482;9.862;2023-02-03T07:50:36;4.00;4.00;4.00
23240;PMS7003;11789;53.482;9.862;2023-02-03T07:53:02;7.25;5.00;4.00
23240;PMS7003;11789;53.482;9.862;2023-02-03T07:55:27;6.50;3.50;2.75
23240;PMS7003;11789;53.482;9.862;2023-02-03T07:57:54;5.75;5.25;4.00
23240;PMS7003;11789;53.482;9.862;2023-02-03T08:00:23;4.00;4.00;3.75
23240;PMS7003;11789;53.482;9.862;2023-02-03T08:02:49;8.25;4.00;3.25
23240;PMS7003;11789;53.482;9.862;2023-02-03T08:05:15;5.75;5.00;3.00
23240;PMS7003;11789;53.482;9.862;2023-02-03T08:07:42;10.25;6.00;3.00
23240;PMS7003;11789;53.482;9.862;2023-02-03T08:10:10;5.00;4.50;3.50
23240;PMS7003;11789;53.482;9.862;2023-02-03T08:12:37;4.75;2.25;1.00
23240;PMS7003;11789;53.482;9.862;2023-02-03T08:15:03;10.50;4.75;3.00
23240;PMS7003;11789;53.482;9.862;2023-02-03T08:17:29;12.00;3.50;2.00
23240;PMS7003;11789;53.482;9.862;2023-02-03T08:19:54;6.50;5.00;3.00
23240;PMS7003;11789;53.482;9.862;2023-02-03T08:22:20;10.00;4.00;3.00
23240;PMS7003;11789;53.482;9.862;2023-02-03T08:24:46;6.50;4.25;2.00
23240;PMS7003;11789;53.482;9.862;2023-02-03T08:27:12;6.25;2.75;1.00
23240;PMS7003;11789;53.482;9.862;2023-02-03T08:29:39;6.00;2.00;1.00
23240;PMS7003;11789;53.482;9.862;2023-02-03T08:32:04;7.25;3.25;2.00
23240;PMS7003;11789;53.482;9.862;2023-02-03T08:34:32;3.75;3.75;1.50
23240;PMS7003;11789;53.482;9.862;2023-02-03T08:36:58;3.00;2.50;2.00
23240;PMS7003;11789;53.482;9.862;2023-02-03T08:39:24;5.00;5.00;2.00
23240;PMS7003;11789;53.482;9.862;2023-02-03T08:41:49;11.50;4.00;1.50
23240;PMS7003;11789;53.482;9.862;2023-02-03T08:44:15;4.75;3.00;1.00
23240;PMS7003;11789;53.482;9.862;2023-02-03T08:46:42;4.75;3.00;1.00
23240;PMS7003;11789;53.482;9.862;2023-02-03T08:49:08;2.00;2.00;1.00
23240;PMS7003;11789;53.482;9.862;2023-02-03T08:51:35;4.50;3.00;2.00
23240;PMS7003;11789;53.482;9.862;2023-02-03T08:54:00;3.00;1.50;1.00
23240;PMS7003;11789;53.482;9.862;2023-02-03T08:56:26;5.00;1.75;1.00
23240;PMS7003;11789;53.482;9.862;2023-02-03T08:58:51;5.00;1.00;0.50
23240;PMS7003;11789;53.482;9.862;2023-02-03T09:01:17;3.25;2.50;1.00
23240;PMS7003;11789;53.482;9.862;2023-02-03T09:03:42;4.50;3.00;1.00
23240;PMS7003;11789;53.482;9.862;2023-02-03T09:06:08;4.00;3.00;2.00
23240;PMS7003;11789;53.482;9.862;2023-02-03T09:08:37;8.25;2.00;1.00
23240;PMS7003;11789;53.482;9.862;2023-02-03T09:11:07;5.25;5.00;1.75
23240;PMS7003;11789;53.482;9.862;2023-02-03T09:13:34;3.50;3.25;1.25
23240;PMS7003;11789;53.482;9.862;2023-02-03T09:15:59;6.25;4.75;1.25
23240;PMS7003;11789;53.482;9.862;2023-02-03T09:18:25;5.50;3.00;2.00
23240;PMS7003;11789;53.482;9.862;2023-02-03T09:20:50;7.75;3.75;1.00
23240;PMS7003;11789;53.482;9.862;2023-02-03T09:23:16;10.00;4.50;2.00
23240;PMS7003;11789;53.482;9.862;2023-02-03T09:25:41;9.25;5.25;2.25
23240;PMS7003;11789;53.482;9.862;2023-02-03T09:28:07;4.00;3.50;2.00
23240;PMS7003;11789;53.482;9.862;2023-02-03T09:30:32;11.00;4.75;2.00
23240;PMS7003;11789;53.482;9.862;2023-02-03T09:32:58;8.50;3.75;1.50
23240;PMS7003;11789;53.482;9.862;2023-02-03T09:35:23;5.25;4.50;2.00
23240;PMS7003;11789;53.482;9.862;2023-02-03T09:37:51;11.75;5.00;3.00
23240;PMS7003;11789;53.482;9.862;2023-02-03T09:40:21;11.50;6.50;2.75
23240;PMS7003;11789;53.482;9.862;2023-02-03T09:42:56;11.50;8.00;2.00
23240;PMS7003;11789;53.482;9.862;2023-02-03T09:45:36;15.00;10.50;3.25
23240;PMS7003;11789;53.482;9.862;2023-02-03T09:48:09;15.75;6.25;3.00
23240;PMS7003;11789;53.482;9.862;2023-02-03T09:50:38;10.00;4.75;2.00
23240;PMS7003;11789;53.482;9.862;2023-02-03T09:53:14;16.25;4.50;2.25
23240;PMS7003;11789;53.482;9.862;2023-02-03T09:55:58;9.00;6.75;3.00
23240;PMS7003;11789;53.482;9.862;2023-02-03T09:58:23;6.50;4.50;2.00
23240;PMS7003;11789;53.482;9.862;2023-02-03T10:00:54;10.75;6.00;2.25
23240;PMS7003;11789;53.482;9.862;2023-02-03T10:09:03;14.25;6.00;4.00
23240;PMS7003;11789;53.482;9.862;2023-02-03T10:17:28;10.50;7.00;4.00
23240;PMS7003;11789;53.482;9.862;2023-02-03T10:20:03;10.50;5.50;3.00
23240;PMS7003;11789;53.482;9.862;2023-02-03T10:22:31;9.75;6.00;3.00
23240;PMS7003;11789;53.482;9.862;2023-02-03T10:28:15;10.25;6.75;3.00
23240;PMS7003;11789;53.482;9.862;2023-02-03T10:30:45;16.00;8.00;3.25
23240;PMS7003;11789;53.482;9.862;2023-02-03T10:33:26;18.00;6.00;3.00
23240;PMS7003;11789;53.482;9.862;2023-02-03T10:35:54;13.75;6.75;3.00
23240;PMS7003;11789;53.482;9.862;2023-02-03T10:41:15;12.50;5.25;2.75
23240;PMS7003;11789;53.482;9.862;2023-02-03T10:43:43;11.00;6.75;2.75
23240;PMS7003;11789;53.482;9.862;2023-02-03T10:46:54;8.25;4.00;2.00
23240;PMS7003;11789;53.482;9.862;2023-02-03T10:49:03;10.00;6.75;3.00
23240;PMS7003;11789;53.482;9.862;2023-02-03T10:51:36;8.75;5.75;2.25
23240;PMS7003;11789;53.482;9.862;2023-02-03T10:54:04;13.25;5.00;2.25
23240;PMS7003;11789;53.482;9.862;2023-02-03T10:56:53;20.75;7.25;2.75
23240;PMS7003;11789;53.482;9.862;2023-02-03T10:59:28;16.50;9.50;4.00
23240;PMS7003;11789;53.482;9.862;2023-02-03T11:01:57;7.50;5.75;3.00
23240;PMS7003;11789;53.482;9.862;2023-02-03T11:04:25;13.50;7.00;3.25
23240;PMS7003;11789;53.482;9.862;2023-02-03T11:06:57;10.75;6.50;3.00
23240;PMS7003;11789;53.482;9.862;2023-02-03T11:09:30;18.75;10.00;3.00
23240;PMS7003;11789;53.482;9.862;2023-02-03T11:12:02;13.25;6.25;3.25
23240;PMS7003;11789;53.482;9.862;2023-02-03T11:14:35;10.50;5.75;2.50
23240;PMS7003;11789;53.482;9.862;2023-02-03T11:17:06;6.00;4.00;2.00
23240;PMS7003;11789;53.482;9.862;2023-02-03T11:19:32;9.25;3.50;1.75
23240;PMS7003;11789;53.482;9.862;2023-02-03T11:21:58;14.50;4.50;2.00
23240;PMS7003;11789;53.482;9.862;2023-02-03T11:27:17;14.75;8.00;2.50
23240;PMS7003;11789;53.482;9.862;2023-02-03T11:29:45;4.25;4.25;1.00
23240;PMS7003;11789;53.482;9.862;2023-02-03T11:34:59;6.25;4.00;2.00
23240;PMS7003;11789;53.482;9.862;2023-02-03T11:37:36;9.00;6.25;3.00
23240;PMS7003;11789;53.482;9.862;2023-02-03T11:42:32;12.00;5.75;2.00
23240;PMS7003;11789;53.482;9.862;2023-02-03T11:45:13;17.25;7.75;2.75
23240;PMS7003;11789;53.482;9.862;2023-02-03T11:50:28;9.00;7.50;3.00
23240;PMS7003;11789;53.482;9.862;2023-02-03T11:58:23;7.50;5.00;3.00
23240;PMS7003;11789;53.482;9.862;2023-02-03T12:09:20;12.00;7.50;3.00
23240;PMS7003;11789;53.482;9.862;2023-02-03T12:20:40;6.00;6.00;2.50
23240;PMS7003;11789;53.482;9.862;2023-02-03T12:37:03;13.25;6.50;2.75
23240;PMS7003;11789;53.482;9.862;2023-02-03T12:42:14;9.00;7.75;3.00
23240;PMS7003;11789;53.482;9.862;2023-02-03T12:45:31;13.75;9.25;4.25
23240;PMS7003;11789;53.482;9.862;2023-02-03T12:47:58;9.25;6.25;3.00
23240;PMS7003;11789;53.482;9.862;2023-02-03T12:53:15;16.25;8.75;4.00
23240;PMS7003;11789;53.482;9.862;2023-02-03T12:56:29;10.50;7.75;3.00
23240;PMS7003;11789;53.482;9.862;2023-02-03T12:58:51;7.25;4.50;1.25
23240;PMS7003;11789;53.482;9.862;2023-02-03T13:04:14;9.00;5.00;2.00
23240;PMS7003;11789;53.482;9.862;2023-02-03T13:09:24;6.00;4.25;2.75
23240;PMS7003;11789;53.482;9.862;2023-02-03T13:11:55;9.50;4.50;2.00
23240;PMS7003;11789;53.482;9.862;2023-02-03T13:14:30;3.50;3.50;2.00
23240;PMS7003;11789;53.482;9.862;2023-02-03T13:19:51;17.00;5.00;1.25
23240;PMS7003;11789;53.482;9.862;2023-02-03T13:22:24;12.50;9.00;4.25
23240;PMS7003;11789;53.482;9.862;2023-02-03T13:27:58;12.00;5.00;3.00
23240;PMS7003;11789;53.482;9.862;2023-02-03T13:36:26;8.00;4.00;1.50
23240;PMS7003;11789;53.482;9.862;2023-02-03T13:41:50;11.00;7.25;2.75
23240;PMS7003;11789;53.482;9.862;2023-02-03T13:44:38;10.25;4.25;1.75
23240;PMS7003;11789;53.482;9.862;2023-02-03T13:47:05;5.75;3.75;2.00
23240;PMS7003;11789;53.482;9.862;2023-02-03T13:49:43;12.75;5.75;2.00
23240;PMS7003;11789;53.482;9.862;2023-02-03T13:52:27;10.00;6.00;3.00
23240;PMS7003;11789;53.482;9.862;2023-02-03T13:54:53;5.50;3.00;2.00
23240;PMS7003;11789;53.482;9.862;2023-02-03T13:57:21;8.00;3.50;2.00
23240;PMS7003;11789;53.482;9.862;2023-02-03T14:00:01;9.50;5.50;2.25
23240;PMS7003;11789;53.482;9.862;2023-02-03T14:02:51;12.25;4.00;2.00
23240;PMS7003;11789;53.482;9.862;2023-02-03T14:05:38;9.00;5.75;2.25
23240;PMS7003;11789;53.482;9.862;2023-02-03T14:11:36;10.50;5.50;2.25
23240;PMS7003;11789;53.482;9.862;2023-02-03T14:16:46;21.00;15.00;9.50
23240;PMS7003;11789;53.482;9.862;2023-02-03T14:19:58;30.00;19.50;9.75
23240;PMS7003;11789;53.482;9.862;2023-02-03T14:21:59;12.75;10.75;5.00
23240;PMS7003;11789;53.482;9.862;2023-02-03T14:24:32;10.00;5.00;3.00
23240;PMS7003;11789;53.482;9.862;2023-02-03T14:27:02;10.00;5.00;2.75
23240;PMS7003;11789;53.482;9.862;2023-02-03T14:29:38;13.75;5.50;2.00
23240;PMS7003;11789;53.482;9.862;2023-02-03T14:32:04;11.00;6.25;3.25
23240;PMS7003;11789;53.482;9.862;2023-02-03T14:34:36;18.75;6.00;2.50
23240;PMS7003;11789;53.482;9.862;2023-02-03T14:55:49;10.75;4.50;2.75
23240;PMS7003;11789;53.482;9.862;2023-02-03T14:58:35;10.00;6.00;2.00
23240;PMS7003;11789;53.482;9.862;2023-02-03T15:01:15;6.50;6.00;3.00
23240;PMS7003;11789;53.482;9.862;2023-02-03T15:06:45;18.00;12.50;6.00
23240;PMS7003;11789;53.482;9.862;2023-02-03T15:11:48;17.50;6.25;3.00
23240;PMS7003;11789;53.482;9.862;2023-02-03T15:14:24;12.50;6.75;3.00
23240;PMS7003;11789;53.482;9.862;2023-02-03T15:16:56;5.25;3.50;2.00
23240;PMS7003;11789;53.482;9.862;2023-02-03T15:19:28;13.25;7.75;4.00
23240;PMS7003;11789;53.482;9.862;2023-02-03T15:21:58;6.00;6.00;3.00
23240;PMS7003;11789;53.482;9.862;2023-02-03T15:24:23;5.00;2.00;1.00
23240;PMS7003;11789;53.482;9.862;2023-02-03T15:26:53;10.25;5.50;3.00
23240;PMS7003;11789;53.482;9.862;2023-02-03T15:29:22;12.25;5.25;1.50
23240;PMS7003;11789;53.482;9.862;2023-02-03T15:31:49;7.00;5.50;3.00
23240;PMS7003;11789;53.482;9.862;2023-02-03T15:36:47;13.75;7.00;3.00
23240;PMS7003;11789;53.482;9.862;2023-02-03T15:42:24;13.75;9.75;3.75
23240;PMS7003;11789;53.482;9.862;2023-02-03T15:44:56;10.25;6.25;2.50
23240;PMS7003;11789;53.482;9.862;2023-02-03T15:47:33;9.00;6.00;3.00
23240;PMS7003;11789;53.482;9.862;2023-02-03T15:50:09;10.25;7.00;3.00
23240;PMS7003;11789;53.482;9.862;2023-02-03T15:52:40;6.50;5.00;1.00
23240;PMS7003;11789;53.482;9.862;2023-02-03T15:55:21;9.50;6.50;3.00
23240;PMS7003;11789;53.482;9.862;2023-02-03T15:57:48;13.75;7.00;3.00
23240;PMS7003;11789;53.482;9.862;2023-02-03T16:00:27;8.75;5.00;2.75
23240;PMS7003;11789;53.482;9.862;2023-02-03T16:02:59;10.75;6.25;2.00
23240;PMS7003;11789;53.482;9.862;2023-02-03T16:05:29;15.75;9.25;3.00
23240;PMS7003;11789;53.482;9.862;2023-02-03T16:08:23;13.75;6.25;3.00
23240;PMS7003;11789;53.482;9.862;2023-02-03T16:10:53;11.75;9.25;5.00
23240;PMS7003;11789;53.482;9.862;2023-02-03T16:16:16;14.25;8.00;4.00
23240;PMS7003;11789;53.482;9.862;2023-02-03T16:18:58;14.75;8.25;2.00
23240;PMS7003;11789;53.482;9.862;2023-02-03T16:21:35;21.75;15.75;10.00
23240;PMS7003;11789;53.482;9.862;2023-02-03T16:27:17;9.25;6.75;3.00
23240;PMS7003;11789;53.482;9.862;2023-02-03T16:29:45;9.25;6.75;3.00
23240;PMS7003;11789;53.482;9.862;2023-02-03T16:32:30;16.75;10.75;3.00
23240;PMS7003;11789;53.482;9.862;2023-02-03T16:35:14;15.75;9.00;2.00
23240;PMS7003;11789;53.482;9.862;2023-02-03T16:38:05;13.50;5.00;3.00
23240;PMS7003;11789;53.482;9.862;2023-02-03T16:40:50;9.50;5.25;2.00
23240;PMS7003;11789;53.482;9.862;2023-02-03T16:43:35;16.50;10.00;5.00
23240;PMS7003;11789;53.482;9.862;2023-02-03T16:46:19;13.00;9.50;3.50
23240;PMS7003;11789;53.482;9.862;2023-02-03T16:49:03;11.50;4.25;2.00
23240;PMS7003;11789;53.482;9.862;2023-02-03T16:51:47;12.75;7.25;2.25
23240;PMS7003;11789;53.482;9.862;2023-02-03T16:54:13;16.25;6.00;3.00
23240;PMS7003;11789;53.482;9.862;2023-02-03T16:56:39;11.00;6.00;3.00
23240;PMS7003;11789;53.482;9.862;2023-02-03T16:59:05;13.50;5.50;1.75
23240;PMS7003;11789;53.482;9.862;2023-02-03T17:01:30;6.50;4.75;3.00